sensor_id;sensor_type;location;lat;lon;timestamp;temperature;humidity
4693;DHT22;11710;48.024;16.296;2023-05-29T05:48:28;25.20;77.60
4693;DHT22;11710;48.024;16.296;2023-05-29T05:50:55;25.10;77.90
4693;DHT22;11710;48.024;16.296;2023-05-29T05:53:22;25.00;78.30
4693;DHT22;11710;48.024;16.296;2023-05-29T05:55:50;24.90;76.60
4693;DHT22;11710;48.024;16.296;2023-05-29T05:58:17;24.70;77.80
4693;DHT22;11710;48.024;16.296;2023-05-29T06:00:44;24.70;79.40
4693;DHT22;11710;48.024;16.296;2023-05-29T06:03:11;24.60;80.20
4693;DHT22;11710;48.024;16.296;2023-05-29T06:05:40;24.40;80.90
4693;DHT22;11710;48.024;16.296;2023-05-29T06:08:07;24.10;80.20
4693;DHT22;11710;48.024;16.296;2023-05-29T06:10:35;24.00;80.50
4693;DHT22;11710;48.024;16.296;2023-05-29T06:13:02;23.90;80.80
4693;DHT22;11710;48.024;16.296;2023-05-29T06:15:29;23.30;80.00
4693;DHT22;11710;48.024;16.296;2023-05-29T06:17:56;23.10;82.60
4693;DHT22;11710;48.024;16.296;2023-05-29T06:20:24;23.10;84.00
4693;DHT22;11710;48.024;16.296;2023-05-29T06:22:53;22.80;83.00
4693;DHT22;11710;48.024;16.296;2023-05-29T06:25:20;22.60;84.10
4693;DHT22;11710;48.024;16.296;2023-05-29T06:27:47;22.80;85.90
4693;DHT22;11710;48.024;16.296;2023-05-29T06:30:15;22.90;81.50
4693;DHT22;11710;48.024;16.296;2023-05-29T06:32:42;22.90;81.00
4693;DHT22;11710;48.024;16.296;2023-05-29T06:35:09;23.10;80.80
4693;DHT22;11710;48.024;16.296;2023-05-29T06:37:36;23.30;79.30
4693;DHT22;11710;48.024;16.296;2023-05-29T06:40:07;23.20;80.80
4693;DHT22;11710;48.024;16.296;2023-05-29T06:42:34;23.20;81.70
4693;DHT22;11710;48.024;16.296;2023-05-29T06:45:02;23.40;80.70
4693;DHT22;11710;48.024;16.296;2023-05-29T06:47:29;23.60;77.80
4693;DHT22;11710;48.024;16.296;2023-05-29T06:49:56;23.80;76.50
4693;DHT22;11710;48.024;16.296;2023-05-29T06:52:23;23.90;76.00
4693;DHT22;11710;48.024;16.296;2023-05-29T06:54:50;23.80;76.10
4693;DHT22;11710;48.024;16.296;2023-05-29T06:57:21;24.00;75.30
4693;DHT22;11710;48.024;16.296;2023-05-29T06:59:48;24.00;74.90
4693;DHT22;11710;48.024;16.296;2023-05-29T07:02:16;24.00;74.40
4693;DHT22;11710;48.024;16.296;2023-05-29T07:04:43;24.10;73.20
4693;DHT22;11710;48.024;16.296;2023-05-29T07:07:10;24.00;75.10
4693;DHT22;11710;48.024;16.296;2023-05-29T07:09:37;24.30;75.40
4693;DHT22;11710;48.024;16.296;2023-05-29T07:12:05;24.40;74.30
4693;DHT22;11710;48.024;16.296;2023-05-29T07:14:34;24.30;73.90
4693;DHT22;11710;48.024;16.296;2023-05-29T07:17:01;24.40;74.50
4693;DHT22;11710;48.024;16.296;2023-05-29T07:19:28;24.50;73.60
4693;DHT22;11710;48.024;16.296;2023-05-29T07:21:58;24.50;73.00
4693;DHT22;11710;48.024;16.296;2023-05-29T07:24:25;24.60;73.20
4693;DHT22;11710;48.024;16.296;2023-05-29T07:26:52;24.50;73.10
4693;DHT22;11710;48.024;16.296;2023-05-29T07:29:20;24.40;74.40
4693;DHT22;11710;48.024;16.296;2023-05-29T07:31:50;24.40;73.50
4693;DHT22;11710;48.024;16.296;2023-05-29T07:34:17;24.50;72.80
4693;DHT22;11710;48.024;16.296;2023-05-29T07:36:58;24.50;73.60
4693;DHT22;11710;48.024;16.296;2023-05-29T07:39:26;24.40;73.50
4693;DHT22;11710;48.024;16.296;2023-05-29T07:41:53;24.40;73.60
4693;DHT22;11710;48.024;16.296;2023-05-29T07:44:21;24.30;74.00
4693;DHT22;11710;48.024;16.296;2023-05-29T07:46:49;24.40;73.40
4693;DHT22;11710;48.024;16.296;2023-05-29T07:49:16;24.50;73.60
4693;DHT22;11710;48.024;16.296;2023-05-29T07:51:44;24.30;74.50
4693;DHT22;11710;48.024;16.296;2023-05-29T07:54:11;24.20;73.50
4693;DHT22;11710;48.024;16.296;2023-05-29T07:56:38;24.30;73.60
4693;DHT22;11710;48.024;16.296;2023-05-29T07:59:06;24.40;73.70
4693;DHT22;11710;48.024;16.296;2023-05-29T08:01:35;24.30;74.00
4693;DHT22;11710;48.024;16.296;2023-05-29T08:04:04;24.40;74.20
4693;DHT22;11710;48.024;16.296;2023-05-29T08:06:31;24.40;75.00
4693;DHT22;11710;48.024;16.296;2023-05-29T08:09:00;24.50;74.40
4693;DHT22;11710;48.024;16.296;2023-05-29T08:11:27;24.60;74.60
4693;DHT22;11710;48.024;16.296;2023-05-29T08:13:54;24.50;73.80
4693;DHT22;11710;48.024;16.296;2023-05-29T08:16:22;24.60;74.10
4693;DHT22;11710;48.024;16.296;2023-05-29T08:18:49;24.80;74.50
4693;DHT22;11710;48.024;16.296;2023-05-29T08:21:17;25.00;73.60
4693;DHT22;11710;48.024;16.296;2023-05-29T08:23:45;25.00;73.40
4693;DHT22;11710;48.024;16.296;2023-05-29T08:26:12;25.10;73.50
4693;DHT22;11710;48.024;16.296;2023-05-29T08:28:39;24.90;73.80
4693;DHT22;11710;48.024;16.296;2023-05-29T08:31:07;24.90;72.60
4693;DHT22;11710;48.024;16.296;2023-05-29T08:33:34;25.10;74.00
4693;DHT22;11710;48.024;16.296;2023-05-29T08:36:02;25.20;71.70
4693;DHT22;11710;48.024;16.296;2023-05-29T08:38:31;25.10;71.80
4693;DHT22;11710;48.024;16.296;2023-05-29T08:40:59;25.20;71.20
4693;DHT22;11710;48.024;16.296;2023-05-29T08:43:30;25.20;73.00
4693;DHT22;11710;48.024;16.296;2023-05-29T08:46:00;25.30;72.60
4693;DHT22;11710;48.024;16.296;2023-05-29T08:48:29;25.40;72.60
4693;DHT22;11710;48.024;16.296;2023-05-29T08:50:58;25.30;70.50
4693;DHT22;11710;48.024;16.296;2023-05-29T08:53:26;25.10;71.50
4693;DHT22;11710;48.024;16.296;2023-05-29T08:55:54;25.30;71.70
4693;DHT22;11710;48.024;16.296;2023-05-29T08:58:23;25.40;72.10
4693;DHT22;11710;48.024;16.296;2023-05-29T09:00:50;25.40;70.50
4693;DHT22;11710;48.024;16.296;2023-05-29T09:03:17;25.50;69.80
4693;DHT22;11710;48.024;16.296;2023-05-29T09:05:46;25.60;69.40
4693;DHT22;11710;48.024;16.296;2023-05-29T09:08:15;25.50;68.10
4693;DHT22;11710;48.024;16.296;2023-05-29T09:10:46;25.50;67.90
4693;DHT22;11710;48.024;16.296;2023-05-29T09:13:15;25.30;68.00
4693;DHT22;11710;48.024;16.296;2023-05-29T09:15:42;25.40;67.90
4693;DHT22;11710;48.024;16.296;2023-05-29T09:18:11;25.50;67.60
4693;DHT22;11710;48.024;16.296;2023-05-29T09:20:44;25.60;67.70
4693;DHT22;11710;48.024;16.296;2023-05-29T09:23:11;25.50;67.90
4693;DHT22;11710;48.024;16.296;2023-05-29T09:25:41;25.70;69.30
4693;DHT22;11710;48.024;16.296;2023-05-29T09:28:11;25.70;67.40
4693;DHT22;11710;48.024;16.296;2023-05-29T09:30:42;25.40;66.80
4693;DHT22;11710;48.024;16.296;2023-05-29T09:33:11;25.30;66.80
4693;DHT22;11710;48.024;16.296;2023-05-29T09:35:39;25.40;65.10
4693;DHT22;11710;48.024;16.296;2023-05-29T09:38:07;25.30;67.00
4693;DHT22;11710;48.024;16.296;2023-05-29T09:40:36;25.30;65.90
4693;DHT22;11710;48.024;16.296;2023-05-29T09:43:05;25.40;67.00
4693;DHT22;11710;48.024;16.296;2023-05-29T09:45:36;25.40;66.90
4693;DHT22;11710;48.024;16.296;2023-05-29T09:48:07;25.50;66.60
4693;DHT22;11710;48.024;16.296;2023-05-29T09:50:35;25.50;67.30
4693;DHT22;11710;48.024;16.296;2023-05-29T09:53:02;25.50;66.20
4693;DHT22;11710;48.024;16.296;2023-05-29T09:55:31;25.50;67.40
4693;DHT22;11710;48.024;16.296;2023-05-29T09:57:59;25.60;67.10
4693;DHT22;11710;48.024;16.296;2023-05-29T10:00:28;25.70;68.50
4693;DHT22;11710;48.024;16.296;2023-05-29T10:02:56;25.70;66.70
4693;DHT22;11710;48.024;16.296;2023-05-29T10:05:25;25.60;67.30
4693;DHT22;11710;48.024;16.296;2023-05-29T10:07:54;25.60;68.00
4693;DHT22;11710;48.024;16.296;2023-05-29T10:10:24;25.80;69.40
4693;DHT22;11710;48.024;16.296;2023-05-29T10:12:53;25.90;67.80
4693;DHT22;11710;48.024;16.296;2023-05-29T10:15:24;25.80;67.70
4693;DHT22;11710;48.024;16.296;2023-05-29T10:18:00;25.70;68.50
4693;DHT22;11710;48.024;16.296;2023-05-29T10:20:33;25.80;69.60
4693;DHT22;11710;48.024;16.296;2023-05-29T10:23:01;25.70;67.50
4693;DHT22;11710;48.024;16.296;2023-05-29T10:25:32;25.60;68.80
4693;DHT22;11710;48.024;16.296;2023-05-29T10:28:01;25.60;68.50
4693;DHT22;11710;48.024;16.296;2023-05-29T10:30:36;25.70;66.10
4693;DHT22;11710;48.024;16.296;2023-05-29T10:33:20;25.70;66.40
4693;DHT22;11710;48.024;16.296;2023-05-29T10:35:55;25.60;68.50
4693;DHT22;11710;48.024;16.296;2023-05-29T10:38:24;25.60;68.00
4693;DHT22;11710;48.024;16.296;2023-05-29T10:40:52;25.70;69.90
4693;DHT22;11710;48.024;16.296;2023-05-29T10:43:30;25.50;68.90
4693;DHT22;11710;48.024;16.296;2023-05-29T10:45:59;25.60;69.00
4693;DHT22;11710;48.024;16.296;2023-05-29T10:48:42;25.60;68.60
4693;DHT22;11710;48.024;16.296;2023-05-29T10:51:27;25.80;68.50
4693;DHT22;11710;48.024;16.296;2023-05-29T10:53:54;25.80;68.40
4693;DHT22;11710;48.024;16.296;2023-05-29T10:56:24;25.70;69.60
4693;DHT22;11710;48.024;16.296;2023-05-29T10:58:58;25.60;69.20
4693;DHT22;11710;48.024;16.296;2023-05-29T11:01:29;25.70;67.90
4693;DHT22;11710;48.024;16.296;2023-05-29T11:04:28;25.80;68.80
4693;DHT22;11710;48.024;16.296;2023-05-29T11:07:00;25.90;69.40
4693;DHT22;11710;48.024;16.296;2023-05-29T11:09:33;25.80;69.60
4693;DHT22;11710;48.024;16.296;2023-05-29T11:12:21;25.90;68.40
4693;DHT22;11710;48.024;16.296;2023-05-29T11:14:55;25.80;68.60
4693;DHT22;11710;48.024;16.296;2023-05-29T11:17:42;25.90;69.60
4693;DHT22;11710;48.024;16.296;2023-05-29T11:20:17;26.10;69.90
4693;DHT22;11710;48.024;16.296;2023-05-29T11:23:00;26.10;69.50
4693;DHT22;11710;48.024;16.296;2023-05-29T11:25:28;26.00;70.30
4693;DHT22;11710;48.024;16.296;2023-05-29T11:28:01;26.10;69.60
4693;DHT22;11710;48.024;16.296;2023-05-29T11:30:42;26.10;67.80
4693;DHT22;11710;48.024;16.296;2023-05-29T11:33:15;25.80;69.40
4693;DHT22;11710;48.024;16.296;2023-05-29T11:35:48;25.80;68.80
4693;DHT22;11710;48.024;16.296;2023-05-29T11:38:18;25.70;67.80
4693;DHT22;11710;48.024;16.296;2023-05-29T11:40:46;25.70;68.90
4693;DHT22;11710;48.024;16.296;2023-05-29T11:43:13;25.80;68.40
4693;DHT22;11710;48.024;16.296;2023-05-29T11:45:40;25.80;68.10
4693;DHT22;11710;48.024;16.296;2023-05-29T11:48:07;26.00;68.50
4693;DHT22;11710;48.024;16.296;2023-05-29T11:50:36;26.10;67.60
4693;DHT22;11710;48.024;16.296;2023-05-29T11:53:06;26.10;68.80
4693;DHT22;11710;48.024;16.296;2023-05-29T11:55:35;26.20;68.80
4693;DHT22;11710;48.024;16.296;2023-05-29T11:58:04;26.10;67.20
4693;DHT22;11710;48.024;16.296;2023-05-29T12:00:33;26.40;67.80
4693;DHT22;11710;48.024;16.296;2023-05-29T12:03:01;26.50;68.80
4693;DHT22;11710;48.024;16.296;2023-05-29T12:05:30;26.50;66.20
4693;DHT22;11710;48.024;16.296;2023-05-29T12:07:57;26.50;65.10
4693;DHT22;11710;48.024;16.296;2023-05-29T12:10:27;26.50;64.90
4693;DHT22;11710;48.024;16.296;2023-05-29T12:12:58;26.50;66.10
4693;DHT22;11710;48.024;16.296;2023-05-29T12:15:26;26.50;65.60
4693;DHT22;11710;48.024;16.296;2023-05-29T12:17:54;26.50;66.40
4693;DHT22;11710;48.024;16.296;2023-05-29T12:20:24;26.50;64.40
4693;DHT22;11710;48.024;16.296;2023-05-29T12:22:53;26.40;64.00
4693;DHT22;11710;48.024;16.296;2023-05-29T12:25:25;26.40;64.80
4693;DHT22;11710;48.024;16.296;2023-05-29T12:27:56;26.40;64.20
4693;DHT22;11710;48.024;16.296;2023-05-29T12:30:24;26.40;64.10
4693;DHT22;11710;48.024;16.296;2023-05-29T12:32:53;26.30;65.20
4693;DHT22;11710;48.024;16.296;2023-05-29T12:35:21;26.30;65.20
4693;DHT22;11710;48.024;16.296;2023-05-29T12:37:54;26.40;64.10
4693;DHT22;11710;48.024;16.296;2023-05-29T12:40:24;26.40;65.30
4693;DHT22;11710;48.024;16.296;2023-05-29T12:42:55;26.40;63.60
4693;DHT22;11710;48.024;16.296;2023-05-29T12:45:26;26.30;62.50
4693;DHT22;11710;48.024;16.296;2023-05-29T12:47:56;26.30;62.10
4693;DHT22;11710;48.024;16.296;2023-05-29T12:50:25;26.40;61.30
4693;DHT22;11710;48.024;16.296;2023-05-29T12:52:59;26.10;61.40
4693;DHT22;11710;48.024;16.296;2023-05-29T12:55:28;26.10;61.60
4693;DHT22;11710;48.024;16.296;2023-05-29T12:57:56;26.10;61.40
4693;DHT22;11710;48.024;16.296;2023-05-29T13:00:25;26.20;62.20
4693;DHT22;11710;48.024;16.296;2023-05-29T13:02:53;26.30;64.00
4693;DHT22;11710;48.024;16.296;2023-05-29T13:05:20;26.50;63.70
4693;DHT22;11710;48.024;16.296;2023-05-29T13:07:49;26.50;62.40
4693;DHT22;11710;48.024;16.296;2023-05-29T13:10:17;26.60;62.40
4693;DHT22;11710;48.024;16.296;2023-05-29T13:12:45;26.70;61.50
4693;DHT22;11710;48.024;16.296;2023-05-29T13:15:13;26.50;61.70
4693;DHT22;11710;48.024;16.296;2023-05-29T13:17:42;26.30;63.30
4693;DHT22;11710;48.024;16.296;2023-05-29T13:20:10;26.20;63.10
4693;DHT22;11710;48.024;16.296;2023-05-29T13:22:39;26.20;62.00
4693;DHT22;11710;48.024;16.296;2023-05-29T13:25:08;26.40;60.70
4693;DHT22;11710;48.024;16.296;2023-05-29T13:27:37;26.40;59.70
4693;DHT22;11710;48.024;16.296;2023-05-29T13:30:06;26.40;60.70
4693;DHT22;11710;48.024;16.296;2023-05-29T13:32:34;26.40;61.50
4693;DHT22;11710;48.024;16.296;2023-05-29T13:35:04;26.50;61.50
4693;DHT22;11710;48.024;16.296;2023-05-29T13:37:31;26.40;62.40
4693;DHT22;11710;48.024;16.296;2023-05-29T13:39:58;26.30;61.30
4693;DHT22;11710;48.024;16.296;2023-05-29T13:42:25;26.30;61.00
4693;DHT22;11710;48.024;16.296;2023-05-29T13:44:53;26.20;60.70
4693;DHT22;11710;48.024;16.296;2023-05-29T13:47:20;26.30;61.40
4693;DHT22;11710;48.024;16.296;2023-05-29T13:49:47;26.40;62.20
4693;DHT22;11710;48.024;16.296;2023-05-29T13:52:16;26.30;62.60
4693;DHT22;11710;48.024;16.296;2023-05-29T13:54:43;26.40;62.10
4693;DHT22;11710;48.024;16.296;2023-05-29T13:57:10;26.20;60.60
4693;DHT22;11710;48.024;16.296;2023-05-29T13:59:38;26.40;61.20
4693;DHT22;11710;48.024;16.296;2023-05-29T14:02:05;26.40;62.60
4693;DHT22;11710;48.024;16.296;2023-05-29T14:04:34;26.30;62.50
4693;DHT22;11710;48.024;16.296;2023-05-29T14:07:01;26.30;63.00
4693;DHT22;11710;48.024;16.296;2023-05-29T14:09:30;26.30;64.10
4693;DHT22;11710;48.024;16.296;2023-05-29T14:11:58;26.20;62.60
4693;DHT22;11710;48.024;16.296;2023-05-29T14:14:26;26.10;63.50
4693;DHT22;11710;48.024;16.296;2023-05-29T14:16:53;26.10;63.50
4693;DHT22;11710;48.024;16.296;2023-05-29T14:19:21;26.20;63.00
4693;DHT22;11710;48.024;16.296;2023-05-29T14:21:48;26.30;63.60
4693;DHT22;11710;48.024;16.296;2023-05-29T14:24:16;26.10;63.10
4693;DHT22;11710;48.024;16.296;2023-05-29T14:26:45;26.10;62.50
4693;DHT22;11710;48.024;16.296;2023-05-29T14:29:14;26.00;62.50
4693;DHT22;11710;48.024;16.296;2023-05-29T14:31:42;26.00;61.00
4693;DHT22;11710;48.024;16.296;2023-05-29T14:34:09;26.10;62.00
4693;DHT22;11710;48.024;16.296;2023-05-29T14:36:37;26.10;61.10
4693;DHT22;11710;48.024;16.296;2023-05-29T14:39:05;26.10;60.40
4693;DHT22;11710;48.024;16.296;2023-05-29T14:41:32;26.10;61.40
4693;DHT22;11710;48.024;16.296;2023-05-29T14:44:02;26.20;62.60
4693;DHT22;11710;48.024;16.296;2023-05-29T14:46:29;26.10;60.30
4693;DHT22;11710;48.024;16.296;2023-05-29T14:48:58;26.00;60.60
4693;DHT22;11710;48.024;16.296;2023-05-29T14:51:26;25.90;62.60
4693;DHT22;11710;48.024;16.296;2023-05-29T14:53:53;25.80;62.80
4693;DHT22;11710;48.024;16.296;2023-05-29T14:56:21;25.90;62.20
4693;DHT22;11710;48.024;16.296;2023-05-29T14:58:48;25.80;62.30
4693;DHT22;11710;48.024;16.296;2023-05-29T15:01:17;25.70;63.80
4693;DHT22;11710;48.024;16.296;2023-05-29T15:03:44;25.70;62.90
4693;DHT22;11710;48.024;16.296;2023-05-29T15:06:12;25.80;63.90
4693;DHT22;11710;48.024;16.296;2023-05-29T15:08:40;25.70;63.50
4693;DHT22;11710;48.024;16.296;2023-05-29T15:11:09;25.60;64.10
4693;DHT22;11710;48.024;16.296;2023-05-29T15:13:38;25.60;63.40
4693;DHT22;11710;48.024;16.296;2023-05-29T15:16:06;25.60;62.60
4693;DHT22;11710;48.024;16.296;2023-05-29T15:18:35;25.50;64.40
4693;DHT22;11710;48.024;16.296;2023-05-29T15:21:02;25.50;65.30
4693;DHT22;11710;48.024;16.296;2023-05-29T15:23:30;25.70;64.30
4693;DHT22;11710;48.024;16.296;2023-05-29T15:25:59;25.80;63.30
4693;DHT22;11710;48.024;16.296;2023-05-29T15:28:28;25.80;63.20
4693;DHT22;11710;48.024;16.296;2023-05-29T15:30:55;25.60;62.70
4693;DHT22;11710;48.024;16.296;2023-05-29T15:33:23;25.60;62.70
4693;DHT22;11710;48.024;16.296;2023-05-29T15:35:51;25.50;62.80
4693;DHT22;11710;48.024;16.296;2023-05-29T15:38:18;25.30;63.10
4693;DHT22;11710;48.024;16.296;2023-05-29T15:40:46;25.30;63.60
4693;DHT22;11710;48.024;16.296;2023-05-29T15:43:13;25.20;62.20
4693;DHT22;11710;48.024;16.296;2023-05-29T15:45:40;25.30;64.50
4693;DHT22;11710;48.024;16.296;2023-05-29T15:48:09;25.40;64.10
4693;DHT22;11710;48.024;16.296;2023-05-29T15:50:36;25.40;63.00
4693;DHT22;11710;48.024;16.296;2023-05-29T15:53:04;25.40;63.50
4693;DHT22;11710;48.024;16.296;2023-05-29T15:55:32;25.30;62.50
4693;DHT22;11710;48.024;16.296;2023-05-29T15:57:59;25.20;61.90
4693;DHT22;11710;48.024;16.296;2023-05-29T16:00:26;25.00;61.60
4693;DHT22;11710;48.024;16.296;2023-05-29T16:02:53;24.90;62.20
4693;DHT22;11710;48.024;16.296;2023-05-29T16:05:21;25.00;63.70
4693;DHT22;11710;48.024;16.296;2023-05-29T16:07:48;25.00;62.90
4693;DHT22;11710;48.024;16.296;2023-05-29T16:10:17;25.00;62.90
4693;DHT22;11710;48.024;16.296;2023-05-29T16:12:46;24.90;61.40
4693;DHT22;11710;48.024;16.296;2023-05-29T16:15:16;24.90;62.40
4693;DHT22;11710;48.024;16.296;2023-05-29T16:17:44;24.90;61.90
4693;DHT22;11710;48.024;16.296;2023-05-29T16:20:12;24.90;62.30
4693;DHT22;11710;48.024;16.296;2023-05-29T16:22:40;24.90;63.20
4693;DHT22;11710;48.024;16.296;2023-05-29T16:25:08;24.90;62.80
4693;DHT22;11710;48.024;16.296;2023-05-29T16:27:37;25.00;63.90
4693;DHT22;11710;48.024;16.296;2023-05-29T16:30:06;24.90;63.40
4693;DHT22;11710;48.024;16.296;2023-05-29T16:32:34;24.90;63.90
4693;DHT22;11710;48.024;16.296;2023-05-29T16:35:02;24.70;64.10
4693;DHT22;11710;48.024;16.296;2023-05-29T16:37:29;24.70;64.70
4693;DHT22;11710;48.024;16.296;2023-05-29T16:39:56;24.70;65.10
4693;DHT22;11710;48.024;16.296;2023-05-29T16:42:24;24.70;65.00
4693;DHT22;11710;48.024;16.296;2023-05-29T16:44:53;24.60;65.20
4693;DHT22;11710;48.024;16.296;2023-05-29T16:47:20;24.50;65.20
4693;DHT22;11710;48.024;16.296;2023-05-29T16:49:47;24.50;65.60
4693;DHT22;11710;48.024;16.296;2023-05-29T16:52:15;24.40;65.60
4693;DHT22;11710;48.024;16.296;2023-05-29T16:54:45;24.50;66.20
4693;DHT22;11710;48.024;16.296;2023-05-29T16:57:13;24.40;65.60
4693;DHT22;11710;48.024;16.296;2023-05-29T16:59:40;24.40;65.80
4693;DHT22;11710;48.024;16.296;2023-05-29T17:02:09;24.40;66.70
4693;DHT22;11710;48.024;16.296;2023-05-29T17:04:36;24.40;67.30
4693;DHT22;11710;48.024;16.296;2023-05-29T17:07:03;24.40;68.40
4693;DHT22;11710;48.024;16.296;2023-05-29T17:09:31;24.50;69.30
4693;DHT22;11710;48.024;16.296;2023-05-29T17:11:58;24.50;69.60
4693;DHT22;11710;48.024;16.296;2023-05-29T17:14:26;24.40;69.50
4693;DHT22;11710;48.024;16.296;2023-05-29T17:16:53;24.40;69.10
4693;DHT22;11710;48.024;16.296;2023-05-29T17:19:21;24.30;68.80
4693;DHT22;11710;48.024;16.296;2023-05-29T17:21:49;24.20;68.60
4693;DHT22;11710;48.024;16.296;2023-05-29T17:24:17;24.20;69.00
4693;DHT22;11710;48.024;16.296;2023-05-29T17:26:44;24.10;69.80
4693;DHT22;11710;48.024;16.296;2023-05-29T17:29:11;24.00;70.20
4693;DHT22;11710;48.024;16.296;2023-05-29T17:31:41;24.00;70.40
4693;DHT22;11710;48.024;16.296;2023-05-29T17:34:08;24.00;70.90
4693;DHT22;11710;48.024;16.296;2023-05-29T17:36:38;23.90;70.90
4693;DHT22;11710;48.024;16.296;2023-05-29T17:39:05;23.90;71.70
4693;DHT22;11710;48.024;16.296;2023-05-29T17:41:32;23.80;71.80
4693;DHT22;11710;48.024;16.296;2023-05-29T17:43:59;23.80;72.00
4693;DHT22;11710;48.024;16.296;2023-05-29T17:46:28;23.70;72.40
4693;DHT22;11710;48.024;16.296;2023-05-29T17:48:55;23.70;72.30
4693;DHT22;11710;48.024;16.296;2023-05-29T17:51:23;23.60;72.20
4693;DHT22;11710;48.024;16.296;2023-05-29T17:53:51;23.60;72.70
4693;DHT22;11710;48.024;16.296;2023-05-29T17:56:19;23.50;72.50
4693;DHT22;11710;48.024;16.296;2023-05-29T17:58:46;23.40;73.80
4693;DHT22;11710;48.024;16.296;2023-05-29T18:01:15;23.30;73.00
4693;DHT22;11710;48.024;16.296;2023-05-29T18:03:43;23.20;72.90
4693;DHT22;11710;48.024;16.296;2023-05-29T18:06:10;23.10;73.30
4693;DHT22;11710;48.024;16.296;2023-05-29T18:08:37;22.90;73.60
4693;DHT22;11710;48.024;16.296;2023-05-29T18:11:05;22.90;73.50
4693;DHT22;11710;48.024;16.296;2023-05-29T18:13:33;22.80;73.90
4693;DHT22;11710;48.024;16.296;2023-05-29T18:16:00;22.70;73.60
4693;DHT22;11710;48.024;16.296;2023-05-29T18:18:27;22.60;74.20
4693;DHT22;11710;48.024;16.296;2023-05-29T18:20:54;22.50;74.00
4693;DHT22;11710;48.024;16.296;2023-05-29T18:23:21;22.40;74.20
4693;DHT22;11710;48.024;16.296;2023-05-29T18:25:48;22.40;74.10
4693;DHT22;11710;48.024;16.296;2023-05-29T18:28:17;22.30;74.60
4693;DHT22;11710;48.024;16.296;2023-05-29T18:30:44;22.20;74.70
4693;DHT22;11710;48.024;16.296;2023-05-29T18:33:12;22.20;75.20
4693;DHT22;11710;48.024;16.296;2023-05-29T18:35:40;22.00;76.00
4693;DHT22;11710;48.024;16.296;2023-05-29T18:38:07;21.90;76.40
4693;DHT22;11710;48.024;16.296;2023-05-29T18:40:36;21.80;76.60
4693;DHT22;11710;48.024;16.296;2023-05-29T18:43:03;21.60;78.40
4693;DHT22;11710;48.024;16.296;2023-05-29T18:45:32;21.50;78.80
4693;DHT22;11710;48.024;16.296;2023-05-29T18:47:59;21.40;78.20
4693;DHT22;11710;48.024;16.296;2023-05-29T18:50:27;21.30;78.00
4693;DHT22;11710;48.024;16.296;2023-05-29T18:52:54;21.10;77.60
4693;DHT22;11710;48.024;16.296;2023-05-29T18:55:21;21.10;77.00
4693;DHT22;11710;48.024;16.296;2023-05-29T18:57:48;21.00;77.90
4693;DHT22;11710;48.024;16.296;2023-05-29T19:00:16;20.90;77.60
4693;DHT22;11710;48.024;16.296;2023-05-29T19:02:51;20.90;77.80
4693;DHT22;11710;48.024;16.296;2023-05-29T19:05:18;20.80;78.20
4693;DHT22;11710;48.024;16.296;2023-05-29T19:07:46;20.70;78.80
4693;DHT22;11710;48.024;16.296;2023-05-29T19:10:14;20.60;79.30
4693;DHT22;11710;48.024;16.296;2023-05-29T19:12:41;20.50;79.40
4693;DHT22;11710;48.024;16.296;2023-05-29T19:15:09;20.40;79.70
4693;DHT22;11710;48.024;16.296;2023-05-29T19:17:40;20.30;80.50
4693;DHT22;11710;48.024;16.296;2023-05-29T19:20:10;20.20;81.20
4693;DHT22;11710;48.024;16.296;2023-05-29T19:22:38;20.20;81.00
4693;DHT22;11710;48.024;16.296;2023-05-29T19:25:06;20.10;82.20
4693;DHT22;11710;48.024;16.296;2023-05-29T19:27:33;20.00;81.30
4693;DHT22;11710;48.024;16.296;2023-05-29T19:30:02;20.00;80.80
4693;DHT22;11710;48.024;16.296;2023-05-29T19:32:30;19.90;81.40
4693;DHT22;11710;48.024;16.296;2023-05-29T19:34:57;19.90;81.40
4693;DHT22;11710;48.024;16.296;2023-05-29T19:37:26;19.90;81.30
4693;DHT22;11710;48.024;16.296;2023-05-29T19:39:53;19.70;82.10
4693;DHT22;11710;48.024;16.296;2023-05-29T19:42:21;19.70;82.40
4693;DHT22;11710;48.024;16.296;2023-05-29T19:44:49;19.70;82.60
4693;DHT22;11710;48.024;16.296;2023-05-29T19:47:17;19.60;82.30
4693;DHT22;11710;48.024;16.296;2023-05-29T19:49:44;19.50;83.30
4693;DHT22;11710;48.024;16.296;2023-05-29T19:52:11;19.50;82.90
4693;DHT22;11710;48.024;16.296;2023-05-29T19:54:41;19.50;83.00
4693;DHT22;11710;48.024;16.296;2023-05-29T19:57:08;19.50;82.60
4693;DHT22;11710;48.024;16.296;2023-05-29T19:59:36;19.50;82.90
4693;DHT22;11710;48.024;16.296;2023-05-29T20:02:08;19.50;83.60
